Aérodrome :
LOGIN :

S'inscrire | Disclaimer

   EN    FR    IT 

 










Légende :    VFR   VFR Marginal   IFR   IFR Intensif   IFR Très Intensif
Visi : 
Plafond : 
>= 8 km
>= 3000ft
5 à 8 km
1000 à 3000 ft
1500m à 5 km
500 à 1000 ft
800 à 1500m
200 à 500 ft
< 800m
< 200 ft
Symboles :   Orages  Brouillard  Fortes neiges  Fortes précipitations  Vent > 20 kt
SIGMETs :   Divers  Orages  Givrage  Turbulence  Onde Orograph.  Cendres Volcan.






- Altitude de l'aérodrome : 1017 ft


LFSL - Brive Souillac

DERNIER METAR :
  • 221230Z AUTO 14015G26KT 110V180 CAVOK 13/06 Q0994 NOSIG

METARs EXPIRÉS :
  • 221200Z AUTO 14012KT 120V190 CAVOK 14/06 Q0995 BECMG 14016G30KT
  • 221130Z AUTO 14012KT 090V180 CAVOK 13/07 Q0996 BECMG 14016G30KT
  • 221100Z AUTO 15013G26KT 110V180 CAVOK 13/06 Q0997 NOSIG
  • 221030Z AUTO 14012KT 110V180 CAVOK 12/06 Q0998 BECMG 14016G30KT
  • 221000Z AUTO 13010KT 110V170 CAVOK 11/06 Q0999 BECMG 14016G30KT

TAF TAF LFSL
Valide du 22 à 12h jusqu'au 22 à 21h UTC


221100Z 2212/2221 13012KT CAVOK
BECMG 2212/2214 14016G30KT
BECMG 2219/2221 14010KT
PROB40
TEMPO 2219/2221 4000 RA BKN020 FEW040TCU OVC100



MET'MAP, la Météo Aéronautique d'un coup d'oeil ! - Copyright ORBIFLY Décembre 2007 - Disclaimer

ORBIFLY MET'MAP TEAM :

Programmation & Développement : Alexandra Zaïnal
Conception & Développement : Baudouin d'Aumeries
Co-Programmation & Développement : Marc-Olivier Méhu
Soutien technique & logistique : Manuel Goepfert

Contact : metmap@orbifly.com




SOURCES & CREDITS :

   NOAA